sensor_id;sensor_type;location;lat;lon;timestamp;P1;durP1;ratioP1;P2;durP2;ratioP2
579;SDS011;276;48.392;9.950;2023-06-10T00:00:44;8.80;;;8.07;;
579;SDS011;276;48.392;9.950;2023-06-10T00:03:10;7.30;;;6.80;;
579;SDS011;276;48.392;9.950;2023-06-10T00:05:39;7.70;;;7.10;;
579;SDS011;276;48.392;9.950;2023-06-10T00:08:07;7.80;;;7.30;;
579;SDS011;276;48.392;9.950;2023-06-10T00:10:36;8.27;;;7.67;;
579;SDS011;276;48.392;9.950;2023-06-10T00:13:06;8.07;;;7.47;;
579;SDS011;276;48.392;9.950;2023-06-10T00:15:36;7.17;;;6.67;;
579;SDS011;276;48.392;9.950;2023-06-10T00:18:02;8.23;;;7.63;;
579;SDS011;276;48.392;9.950;2023-06-10T00:20:29;6.80;;;6.40;;
579;SDS011;276;48.392;9.950;2023-06-10T00:22:55;7.87;;;7.27;;
579;SDS011;276;48.392;9.950;2023-06-10T00:25:22;7.20;;;6.70;;
579;SDS011;276;48.392;9.950;2023-06-10T00:27:48;7.60;;;7.00;;
579;SDS011;276;48.392;9.950;2023-06-10T00:30:16;7.30;;;6.87;;
579;SDS011;276;48.392;9.950;2023-06-10T00:32:44;6.63;;;6.13;;
579;SDS011;276;48.392;9.950;2023-06-10T00:35:10;7.27;;;6.77;;
579;SDS011;276;48.392;9.950;2023-06-10T00:37:36;7.83;;;7.23;;
579;SDS011;276;48.392;9.950;2023-06-10T00:40:04;7.30;;;6.70;;
579;SDS011;276;48.392;9.950;2023-06-10T00:42:30;7.40;;;6.80;;
579;SDS011;276;48.392;9.950;2023-06-10T00:44:56;6.93;;;5.93;;
579;SDS011;276;48.392;9.950;2023-06-10T00:47:22;7.00;;;6.40;;
579;SDS011;276;48.392;9.950;2023-06-10T00:49:49;6.93;;;6.43;;
579;SDS011;276;48.392;9.950;2023-06-10T00:52:15;7.30;;;6.80;;
579;SDS011;276;48.392;9.950;2023-06-10T00:54:45;7.07;;;6.57;;
579;SDS011;276;48.392;9.950;2023-06-10T00:57:11;6.70;;;6.20;;
579;SDS011;276;48.392;9.950;2023-06-10T00:59:43;6.93;;;6.43;;
579;SDS011;276;48.392;9.950;2023-06-10T01:02:14;6.80;;;6.30;;
579;SDS011;276;48.392;9.950;2023-06-10T01:04:40;7.40;;;6.70;;
579;SDS011;276;48.392;9.950;2023-06-10T01:12:31;6.50;;;6.03;;
579;SDS011;276;48.392;9.950;2023-06-10T01:15:27;6.60;;;6.20;;
579;SDS011;276;48.392;9.950;2023-06-10T01:17:59;6.20;;;5.70;;
579;SDS011;276;48.392;9.950;2023-06-10T01:20:27;6.80;;;6.40;;
579;SDS011;276;48.392;9.950;2023-06-10T01:22:54;6.07;;;5.67;;
579;SDS011;276;48.392;9.950;2023-06-10T01:25:22;6.03;;;5.50;;
579;SDS011;276;48.392;9.950;2023-06-10T01:27:54;6.63;;;6.23;;
579;SDS011;276;48.392;9.950;2023-06-10T01:30:30;6.70;;;6.13;;
579;SDS011;276;48.392;9.950;2023-06-10T01:33:03;6.30;;;5.80;;
579;SDS011;276;48.392;9.950;2023-06-10T01:35:34;6.03;;;5.63;;
579;SDS011;276;48.392;9.950;2023-06-10T01:38:02;6.90;;;6.40;;
579;SDS011;276;48.392;9.950;2023-06-10T01:40:33;7.60;;;7.00;;
579;SDS011;276;48.392;9.950;2023-06-10T01:42:59;7.03;;;6.53;;
579;SDS011;276;48.392;9.950;2023-06-10T01:45:27;6.47;;;6.07;;
579;SDS011;276;48.392;9.950;2023-06-10T01:47:52;6.80;;;6.20;;
579;SDS011;276;48.392;9.950;2023-06-10T01:50:18;6.67;;;6.17;;
579;SDS011;276;48.392;9.950;2023-06-10T01:52:44;8.03;;;7.40;;
579;SDS011;276;48.392;9.950;2023-06-10T01:55:12;7.20;;;6.60;;
579;SDS011;276;48.392;9.950;2023-06-10T01:57:40;6.77;;;6.37;;
579;SDS011;276;48.392;9.950;2023-06-10T02:00:11;7.73;;;6.67;;
579;SDS011;276;48.392;9.950;2023-06-10T02:02:38;6.97;;;6.37;;
579;SDS011;276;48.392;9.950;2023-06-10T02:05:03;7.20;;;6.60;;
579;SDS011;276;48.392;9.950;2023-06-10T02:07:30;6.80;;;6.20;;
579;SDS011;276;48.392;9.950;2023-06-10T02:09:55;7.47;;;7.00;;
579;SDS011;276;48.392;9.950;2023-06-10T02:12:21;6.90;;;6.40;;
579;SDS011;276;48.392;9.950;2023-06-10T02:14:47;6.50;;;6.10;;
579;SDS011;276;48.392;9.950;2023-06-10T02:17:13;7.90;;;7.07;;
579;SDS011;276;48.392;9.950;2023-06-10T02:19:39;7.07;;;6.47;;
579;SDS011;276;48.392;9.950;2023-06-10T02:22:07;6.57;;;6.17;;
579;SDS011;276;48.392;9.950;2023-06-10T02:24:35;6.90;;;6.37;;
579;SDS011;276;48.392;9.950;2023-06-10T02:27:04;6.57;;;6.07;;
579;SDS011;276;48.392;9.950;2023-06-10T02:29:33;7.83;;;7.13;;
579;SDS011;276;48.392;9.950;2023-06-10T02:32:02;7.40;;;6.80;;
579;SDS011;276;48.392;9.950;2023-06-10T02:34:28;7.97;;;7.37;;
579;SDS011;276;48.392;9.950;2023-06-10T02:36:54;6.13;;;5.63;;
579;SDS011;276;48.392;9.950;2023-06-10T02:39:21;7.37;;;6.87;;
579;SDS011;276;48.392;9.950;2023-06-10T02:41:46;8.00;;;7.50;;
579;SDS011;276;48.392;9.950;2023-06-10T02:44:12;7.13;;;6.63;;
579;SDS011;276;48.392;9.950;2023-06-10T02:46:38;6.50;;;6.10;;
579;SDS011;276;48.392;9.950;2023-06-10T02:49:03;7.63;;;7.13;;
579;SDS011;276;48.392;9.950;2023-06-10T02:51:33;7.57;;;7.00;;
579;SDS011;276;48.392;9.950;2023-06-10T02:53:59;7.03;;;6.53;;
579;SDS011;276;48.392;9.950;2023-06-10T02:56:25;7.90;;;7.13;;
579;SDS011;276;48.392;9.950;2023-06-10T02:58:50;7.53;;;7.03;;
579;SDS011;276;48.392;9.950;2023-06-10T03:01:18;7.33;;;6.80;;
579;SDS011;276;48.392;9.950;2023-06-10T03:03:44;7.53;;;7.03;;
579;SDS011;276;48.392;9.950;2023-06-10T03:06:11;7.50;;;7.00;;
579;SDS011;276;48.392;9.950;2023-06-10T03:08:40;7.00;;;6.50;;
579;SDS011;276;48.392;9.950;2023-06-10T03:11:08;7.00;;;6.50;;
579;SDS011;276;48.392;9.950;2023-06-10T03:13:35;7.70;;;7.10;;
579;SDS011;276;48.392;9.950;2023-06-10T03:16:00;7.07;;;6.50;;
579;SDS011;276;48.392;9.950;2023-06-10T03:18:29;7.07;;;6.57;;
579;SDS011;276;48.392;9.950;2023-06-10T03:20:55;8.70;;;8.00;;
579;SDS011;276;48.392;9.950;2023-06-10T03:23:22;7.20;;;6.70;;
579;SDS011;276;48.392;9.950;2023-06-10T03:25:50;6.90;;;6.40;;
579;SDS011;276;48.392;9.950;2023-06-10T03:28:15;6.73;;;6.20;;
579;SDS011;276;48.392;9.950;2023-06-10T03:30:41;6.50;;;6.10;;
579;SDS011;276;48.392;9.950;2023-06-10T03:33:06;7.40;;;6.90;;
579;SDS011;276;48.392;9.950;2023-06-10T03:35:35;8.00;;;7.50;;
579;SDS011;276;48.392;9.950;2023-06-10T03:38:01;7.40;;;6.97;;
579;SDS011;276;48.392;9.950;2023-06-10T03:40:26;7.13;;;6.60;;
579;SDS011;276;48.392;9.950;2023-06-10T03:42:52;7.90;;;7.40;;
579;SDS011;276;48.392;9.950;2023-06-10T03:45:20;8.00;;;7.40;;
579;SDS011;276;48.392;9.950;2023-06-10T03:47:49;7.57;;;6.97;;
579;SDS011;276;48.392;9.950;2023-06-10T03:50:17;7.80;;;7.20;;
579;SDS011;276;48.392;9.950;2023-06-10T03:52:43;7.40;;;6.90;;
579;SDS011;276;48.392;9.950;2023-06-10T03:55:10;7.73;;;7.23;;
579;SDS011;276;48.392;9.950;2023-06-10T03:57:38;7.83;;;7.33;;
579;SDS011;276;48.392;9.950;2023-06-10T04:00:04;7.73;;;7.13;;
579;SDS011;276;48.392;9.950;2023-06-10T04:02:37;6.80;;;6.40;;
579;SDS011;276;48.392;9.950;2023-06-10T04:05:10;7.60;;;7.10;;
579;SDS011;276;48.392;9.950;2023-06-10T04:07:39;8.10;;;7.50;;
579;SDS011;276;48.392;9.950;2023-06-10T04:10:06;7.27;;;6.77;;
579;SDS011;276;48.392;9.950;2023-06-10T04:12:32;6.80;;;6.40;;
579;SDS011;276;48.392;9.950;2023-06-10T04:15:00;6.90;;;6.50;;
579;SDS011;276;48.392;9.950;2023-06-10T04:17:31;7.27;;;6.77;;
579;SDS011;276;48.392;9.950;2023-06-10T04:19:57;9.30;;;8.50;;
579;SDS011;276;48.392;9.950;2023-06-10T04:22:26;8.73;;;7.93;;
579;SDS011;276;48.392;9.950;2023-06-10T04:24:52;8.20;;;7.60;;
579;SDS011;276;48.392;9.950;2023-06-10T04:27:18;7.43;;;6.93;;
579;SDS011;276;48.392;9.950;2023-06-10T04:29:43;7.43;;;6.90;;
579;SDS011;276;48.392;9.950;2023-06-10T04:32:11;6.93;;;6.53;;
579;SDS011;276;48.392;9.950;2023-06-10T04:34:39;8.27;;;7.67;;
579;SDS011;276;48.392;9.950;2023-06-10T04:37:07;6.73;;;6.23;;
579;SDS011;276;48.392;9.950;2023-06-10T04:39:33;8.07;;;7.47;;
579;SDS011;276;48.392;9.950;2023-06-10T04:41:58;7.10;;;6.57;;
579;SDS011;276;48.392;9.950;2023-06-10T04:44:32;7.40;;;6.80;;
579;SDS011;276;48.392;9.950;2023-06-10T04:47:00;8.00;;;7.30;;
579;SDS011;276;48.392;9.950;2023-06-10T04:49:27;7.30;;;6.80;;
579;SDS011;276;48.392;9.950;2023-06-10T04:51:53;6.17;;;5.70;;
579;SDS011;276;48.392;9.950;2023-06-10T04:54:19;6.87;;;6.33;;
579;SDS011;276;48.392;9.950;2023-06-10T04:56:47;6.67;;;6.27;;
579;SDS011;276;48.392;9.950;2023-06-10T04:59:13;7.63;;;7.13;;
579;SDS011;276;48.392;9.950;2023-06-10T05:01:39;6.90;;;6.40;;
579;SDS011;276;48.392;9.950;2023-06-10T05:04:05;7.43;;;6.90;;
579;SDS011;276;48.392;9.950;2023-06-10T05:06:30;7.23;;;6.73;;
579;SDS011;276;48.392;9.950;2023-06-10T05:08:56;6.53;;;6.00;;
579;SDS011;276;48.392;9.950;2023-06-10T05:11:21;7.77;;;7.27;;
579;SDS011;276;48.392;9.950;2023-06-10T05:13:47;6.83;;;6.33;;
579;SDS011;276;48.392;9.950;2023-06-10T05:16:13;7.73;;;7.03;;
579;SDS011;276;48.392;9.950;2023-06-10T05:18:41;7.00;;;6.50;;
579;SDS011;276;48.392;9.950;2023-06-10T05:21:07;7.03;;;6.53;;
579;SDS011;276;48.392;9.950;2023-06-10T05:23:35;7.57;;;7.00;;
579;SDS011;276;48.392;9.950;2023-06-10T05:26:01;8.13;;;7.53;;
579;SDS011;276;48.392;9.950;2023-06-10T05:28:31;7.03;;;6.43;;
579;SDS011;276;48.392;9.950;2023-06-10T05:30:57;7.00;;;6.50;;
579;SDS011;276;48.392;9.950;2023-06-10T05:33:23;8.20;;;7.47;;
579;SDS011;276;48.392;9.950;2023-06-10T05:35:48;6.90;;;6.40;;
579;SDS011;276;48.392;9.950;2023-06-10T05:38:14;7.70;;;7.10;;
579;SDS011;276;48.392;9.950;2023-06-10T05:40:41;7.27;;;6.57;;
579;SDS011;276;48.392;9.950;2023-06-10T05:43:07;6.30;;;5.90;;
579;SDS011;276;48.392;9.950;2023-06-10T05:45:34;8.00;;;7.37;;
579;SDS011;276;48.392;9.950;2023-06-10T05:48:00;8.00;;;7.50;;
579;SDS011;276;48.392;9.950;2023-06-10T05:50:25;8.47;;;7.77;;
579;SDS011;276;48.392;9.950;2023-06-10T05:52:51;8.00;;;7.40;;
579;SDS011;276;48.392;9.950;2023-06-10T05:55:20;7.73;;;7.13;;
579;SDS011;276;48.392;9.950;2023-06-10T05:57:58;8.70;;;8.00;;
579;SDS011;276;48.392;9.950;2023-06-10T06:00:26;8.30;;;7.50;;
579;SDS011;276;48.392;9.950;2023-06-10T06:02:52;8.30;;;7.70;;
579;SDS011;276;48.392;9.950;2023-06-10T06:05:19;8.87;;;8.27;;
579;SDS011;276;48.392;9.950;2023-06-10T06:07:44;7.87;;;7.37;;
579;SDS011;276;48.392;9.950;2023-06-10T06:10:10;7.90;;;7.30;;
579;SDS011;276;48.392;9.950;2023-06-10T06:12:38;8.27;;;7.57;;
579;SDS011;276;48.392;9.950;2023-06-10T06:15:06;7.63;;;7.13;;
579;SDS011;276;48.392;9.950;2023-06-10T06:17:34;8.40;;;7.80;;
579;SDS011;276;48.392;9.950;2023-06-10T06:20:00;7.80;;;7.10;;
579;SDS011;276;48.392;9.950;2023-06-10T06:22:26;6.67;;;6.17;;
579;SDS011;276;48.392;9.950;2023-06-10T06:24:51;8.23;;;7.47;;
579;SDS011;276;48.392;9.950;2023-06-10T06:27:17;7.20;;;6.80;;
579;SDS011;276;48.392;9.950;2023-06-10T06:29:45;7.40;;;6.80;;
579;SDS011;276;48.392;9.950;2023-06-10T06:32:13;8.57;;;7.97;;
579;SDS011;276;48.392;9.950;2023-06-10T06:34:41;8.37;;;7.67;;
579;SDS011;276;48.392;9.950;2023-06-10T06:37:06;8.50;;;7.83;;
579;SDS011;276;48.392;9.950;2023-06-10T06:39:32;8.23;;;7.53;;
579;SDS011;276;48.392;9.950;2023-06-10T06:42:00;8.60;;;7.80;;
579;SDS011;276;48.392;9.950;2023-06-10T06:44:25;7.70;;;6.90;;
579;SDS011;276;48.392;9.950;2023-06-10T06:46:53;7.10;;;6.60;;
579;SDS011;276;48.392;9.950;2023-06-10T06:49:21;7.70;;;7.10;;
579;SDS011;276;48.392;9.950;2023-06-10T06:51:47;8.50;;;7.80;;
579;SDS011;276;48.392;9.950;2023-06-10T06:54:13;8.80;;;8.20;;
579;SDS011;276;48.392;9.950;2023-06-10T06:56:38;8.87;;;8.07;;
579;SDS011;276;48.392;9.950;2023-06-10T06:59:06;8.13;;;7.50;;
579;SDS011;276;48.392;9.950;2023-06-10T07:01:34;8.43;;;7.70;;
579;SDS011;276;48.392;9.950;2023-06-10T07:04:02;9.00;;;8.40;;
579;SDS011;276;48.392;9.950;2023-06-10T07:06:28;10.33;;;9.13;;
579;SDS011;276;48.392;9.950;2023-06-10T07:08:53;9.90;;;9.20;;
579;SDS011;276;48.392;9.950;2023-06-10T07:11:21;10.73;;;9.83;;
579;SDS011;276;48.392;9.950;2023-06-10T07:13:47;13.23;;;12.13;;
579;SDS011;276;48.392;9.950;2023-06-10T07:16:12;12.27;;;11.30;;
579;SDS011;276;48.392;9.950;2023-06-10T07:18:39;11.87;;;10.70;;
579;SDS011;276;48.392;9.950;2023-06-10T07:21:04;12.07;;;11.10;;
579;SDS011;276;48.392;9.950;2023-06-10T07:23:34;10.93;;;10.10;;
579;SDS011;276;48.392;9.950;2023-06-10T07:26:00;11.33;;;10.53;;
579;SDS011;276;48.392;9.950;2023-06-10T07:28:26;10.40;;;9.70;;
579;SDS011;276;48.392;9.950;2023-06-10T07:30:51;9.10;;;8.40;;
579;SDS011;276;48.392;9.950;2023-06-10T07:33:17;9.80;;;9.10;;
579;SDS011;276;48.392;9.950;2023-06-10T07:35:42;10.10;;;9.40;;
579;SDS011;276;48.392;9.950;2023-06-10T07:38:08;10.07;;;9.27;;
579;SDS011;276;48.392;9.950;2023-06-10T07:40:36;9.83;;;8.80;;
579;SDS011;276;48.392;9.950;2023-06-10T07:43:02;9.50;;;8.80;;
579;SDS011;276;48.392;9.950;2023-06-10T07:45:30;10.27;;;9.57;;
579;SDS011;276;48.392;9.950;2023-06-10T07:47:55;9.50;;;8.80;;
579;SDS011;276;48.392;9.950;2023-06-10T07:50:21;9.20;;;8.50;;
579;SDS011;276;48.392;9.950;2023-06-10T07:52:49;9.10;;;8.50;;
579;SDS011;276;48.392;9.950;2023-06-10T07:55:15;9.40;;;8.63;;
579;SDS011;276;48.392;9.950;2023-06-10T07:57:43;8.13;;;7.60;;
579;SDS011;276;48.392;9.950;2023-06-10T08:00:09;9.03;;;8.43;;
579;SDS011;276;48.392;9.950;2023-06-10T08:02:35;8.67;;;8.07;;
579;SDS011;276;48.392;9.950;2023-06-10T08:05:00;12.17;;;11.17;;
579;SDS011;276;48.392;9.950;2023-06-10T08:07:26;8.57;;;7.87;;
579;SDS011;276;48.392;9.950;2023-06-10T08:09:52;9.57;;;8.87;;
579;SDS011;276;48.392;9.950;2023-06-10T08:12:21;14.00;;;12.93;;
579;SDS011;276;48.392;9.950;2023-06-10T08:14:47;10.07;;;9.43;;
579;SDS011;276;48.392;9.950;2023-06-10T08:17:13;11.43;;;10.63;;
579;SDS011;276;48.392;9.950;2023-06-10T08:19:38;10.47;;;9.67;;
579;SDS011;276;48.392;9.950;2023-06-10T08:22:04;10.00;;;9.20;;
579;SDS011;276;48.392;9.950;2023-06-10T08:24:33;10.67;;;9.87;;
579;SDS011;276;48.392;9.950;2023-06-10T08:26:58;8.77;;;8.17;;
579;SDS011;276;48.392;9.950;2023-06-10T08:29:24;8.00;;;7.20;;
579;SDS011;276;48.392;9.950;2023-06-10T08:31:52;10.23;;;9.57;;
579;SDS011;276;48.392;9.950;2023-06-10T08:34:18;7.90;;;7.30;;
579;SDS011;276;48.392;9.950;2023-06-10T08:36:44;7.27;;;6.70;;
579;SDS011;276;48.392;9.950;2023-06-10T08:39:13;7.60;;;7.07;;
579;SDS011;276;48.392;9.950;2023-06-10T08:41:40;8.27;;;7.67;;
579;SDS011;276;48.392;9.950;2023-06-10T08:44:21;6.77;;;6.37;;
579;SDS011;276;48.392;9.950;2023-06-10T08:47:01;7.67;;;7.07;;
579;SDS011;276;48.392;9.950;2023-06-10T08:49:41;7.67;;;7.07;;
579;SDS011;276;48.392;9.950;2023-06-10T08:52:09;7.47;;;6.97;;
579;SDS011;276;48.392;9.950;2023-06-10T08:54:42;6.70;;;6.20;;
579;SDS011;276;48.392;9.950;2023-06-10T08:57:11;7.20;;;6.70;;
579;SDS011;276;48.392;9.950;2023-06-10T08:59:38;7.00;;;6.50;;
579;SDS011;276;48.392;9.950;2023-06-10T09:02:04;6.40;;;6.00;;
579;SDS011;276;48.392;9.950;2023-06-10T09:04:32;8.33;;;7.73;;
579;SDS011;276;48.392;9.950;2023-06-10T09:06:58;6.77;;;6.37;;
579;SDS011;276;48.392;9.950;2023-06-10T09:09:28;7.83;;;7.03;;
579;SDS011;276;48.392;9.950;2023-06-10T09:11:55;6.57;;;6.07;;
579;SDS011;276;48.392;9.950;2023-06-10T09:14:21;7.07;;;6.67;;
579;SDS011;276;48.392;9.950;2023-06-10T09:16:46;6.37;;;5.87;;
579;SDS011;276;48.392;9.950;2023-06-10T09:19:13;6.70;;;6.20;;
579;SDS011;276;48.392;9.950;2023-06-10T09:21:41;6.83;;;6.23;;
579;SDS011;276;48.392;9.950;2023-06-10T09:24:06;6.13;;;5.60;;
579;SDS011;276;48.392;9.950;2023-06-10T09:26:34;6.70;;;6.20;;
579;SDS011;276;48.392;9.950;2023-06-10T09:29:04;7.50;;;7.00;;
579;SDS011;276;48.392;9.950;2023-06-10T09:31:35;6.73;;;6.10;;
579;SDS011;276;48.392;9.950;2023-06-10T09:34:12;6.70;;;6.30;;
579;SDS011;276;48.392;9.950;2023-06-10T09:36:39;6.97;;;6.40;;
579;SDS011;276;48.392;9.950;2023-06-10T09:39:16;6.13;;;5.70;;
579;SDS011;276;48.392;9.950;2023-06-10T09:41:42;6.50;;;5.90;;
579;SDS011;276;48.392;9.950;2023-06-10T09:44:13;5.37;;;5.00;;
579;SDS011;276;48.392;9.950;2023-06-10T09:46:47;6.67;;;6.20;;
579;SDS011;276;48.392;9.950;2023-06-10T09:49:14;5.60;;;5.20;;
579;SDS011;276;48.392;9.950;2023-06-10T09:51:52;7.37;;;6.67;;
579;SDS011;276;48.392;9.950;2023-06-10T09:54:20;5.93;;;5.53;;
579;SDS011;276;48.392;9.950;2023-06-10T09:56:51;6.10;;;5.70;;
579;SDS011;276;48.392;9.950;2023-06-10T09:59:29;5.93;;;5.53;;
579;SDS011;276;48.392;9.950;2023-06-10T10:01:59;6.70;;;6.30;;
579;SDS011;276;48.392;9.950;2023-06-10T10:04:25;8.80;;;6.67;;
579;SDS011;276;48.392;9.950;2023-06-10T10:06:52;6.63;;;6.10;;
579;SDS011;276;48.392;9.950;2023-06-10T10:09:17;6.40;;;5.80;;
579;SDS011;276;48.392;9.950;2023-06-10T10:11:43;6.87;;;6.47;;
579;SDS011;276;48.392;9.950;2023-06-10T10:14:09;5.70;;;5.30;;
579;SDS011;276;48.392;9.950;2023-06-10T10:16:36;5.20;;;4.80;;
579;SDS011;276;48.392;9.950;2023-06-10T10:19:16;6.93;;;6.37;;
579;SDS011;276;48.392;9.950;2023-06-10T10:21:52;5.13;;;4.83;;
579;SDS011;276;48.392;9.950;2023-06-10T10:24:23;5.20;;;4.90;;
579;SDS011;276;48.392;9.950;2023-06-10T10:26:56;5.90;;;5.50;;
579;SDS011;276;48.392;9.950;2023-06-10T10:29:24;5.40;;;5.00;;
579;SDS011;276;48.392;9.950;2023-06-10T10:31:58;5.13;;;4.80;;
579;SDS011;276;48.392;9.950;2023-06-10T10:37:10;5.20;;;4.90;;
579;SDS011;276;48.392;9.950;2023-06-10T10:39:35;7.27;;;5.33;;
579;SDS011;276;48.392;9.950;2023-06-10T10:42:04;6.07;;;5.67;;
579;SDS011;276;48.392;9.950;2023-06-10T10:44:34;5.10;;;4.70;;
579;SDS011;276;48.392;9.950;2023-06-10T10:47:02;5.67;;;5.37;;
579;SDS011;276;48.392;9.950;2023-06-10T10:49:35;4.80;;;4.60;;
579;SDS011;276;48.392;9.950;2023-06-10T10:52:01;5.80;;;5.40;;
579;SDS011;276;48.392;9.950;2023-06-10T10:54:32;4.87;;;4.57;;
579;SDS011;276;48.392;9.950;2023-06-10T10:59:58;4.60;;;4.20;;
579;SDS011;276;48.392;9.950;2023-06-10T11:05:10;6.00;;;5.60;;
579;SDS011;276;48.392;9.950;2023-06-10T11:07:40;5.87;;;5.50;;
579;SDS011;276;48.392;9.950;2023-06-10T11:10:16;5.37;;;4.97;;
579;SDS011;276;48.392;9.950;2023-06-10T11:15:10;5.00;;;4.70;;
579;SDS011;276;48.392;9.950;2023-06-10T11:26:10;5.17;;;4.87;;
579;SDS011;276;48.392;9.950;2023-06-10T11:31:27;5.13;;;4.73;;
579;SDS011;276;48.392;9.950;2023-06-10T11:33:54;4.47;;;4.17;;
579;SDS011;276;48.392;9.950;2023-06-10T11:36:25;6.30;;;5.80;;
579;SDS011;276;48.392;9.950;2023-06-10T11:39:00;5.70;;;5.30;;
579;SDS011;276;48.392;9.950;2023-06-10T11:41:27;5.67;;;5.27;;
579;SDS011;276;48.392;9.950;2023-06-10T11:43:56;4.80;;;4.50;;
579;SDS011;276;48.392;9.950;2023-06-10T11:46:25;4.87;;;4.57;;
579;SDS011;276;48.392;9.950;2023-06-10T11:48:53;5.47;;;5.17;;
579;SDS011;276;48.392;9.950;2023-06-10T11:51:20;5.67;;;5.17;;
579;SDS011;276;48.392;9.950;2023-06-10T11:53:49;5.00;;;4.70;;
579;SDS011;276;48.392;9.950;2023-06-10T11:56:29;4.80;;;4.50;;
579;SDS011;276;48.392;9.950;2023-06-10T11:58:59;6.00;;;5.60;;
579;SDS011;276;48.392;9.950;2023-06-10T12:01:42;5.30;;;5.00;;
579;SDS011;276;48.392;9.950;2023-06-10T12:09:05;12.50;;;6.23;;
579;SDS011;276;48.392;9.950;2023-06-10T12:11:33;6.40;;;6.00;;
579;SDS011;276;48.392;9.950;2023-06-10T12:13:59;6.87;;;6.37;;
579;SDS011;276;48.392;9.950;2023-06-10T12:16:25;6.60;;;6.17;;
579;SDS011;276;48.392;9.950;2023-06-10T12:18:50;7.40;;;6.90;;
579;SDS011;276;48.392;9.950;2023-06-10T12:21:25;6.43;;;6.03;;
579;SDS011;276;48.392;9.950;2023-06-10T12:26:42;7.27;;;6.77;;
579;SDS011;276;48.392;9.950;2023-06-10T12:29:16;6.63;;;6.20;;
579;SDS011;276;48.392;9.950;2023-06-10T12:34:38;6.97;;;6.47;;
579;SDS011;276;48.392;9.950;2023-06-10T12:37:09;6.13;;;5.67;;
579;SDS011;276;48.392;9.950;2023-06-10T12:39:39;6.13;;;5.73;;
579;SDS011;276;48.392;9.950;2023-06-10T12:42:17;7.00;;;6.60;;
579;SDS011;276;48.392;9.950;2023-06-10T12:44:47;6.80;;;6.30;;
579;SDS011;276;48.392;9.950;2023-06-10T12:47:19;7.17;;;6.67;;
579;SDS011;276;48.392;9.950;2023-06-10T12:49:54;7.20;;;6.70;;
579;SDS011;276;48.392;9.950;2023-06-10T12:52:21;7.30;;;6.90;;
579;SDS011;276;48.392;9.950;2023-06-10T12:54:47;7.13;;;6.70;;
579;SDS011;276;48.392;9.950;2023-06-10T12:57:13;7.23;;;6.73;;
579;SDS011;276;48.392;9.950;2023-06-10T12:59:39;7.23;;;6.70;;
579;SDS011;276;48.392;9.950;2023-06-10T13:02:09;6.73;;;6.27;;
579;SDS011;276;48.392;9.950;2023-06-10T13:04:35;6.73;;;6.33;;
579;SDS011;276;48.392;9.950;2023-06-10T13:07:01;6.80;;;6.30;;
579;SDS011;276;48.392;9.950;2023-06-10T13:09:27;8.10;;;7.50;;
579;SDS011;276;48.392;9.950;2023-06-10T13:11:52;6.10;;;5.70;;
579;SDS011;276;48.392;9.950;2023-06-10T13:14:20;6.53;;;6.13;;
579;SDS011;276;48.392;9.950;2023-06-10T13:16:46;7.77;;;7.30;;
579;SDS011;276;48.392;9.950;2023-06-10T13:19:17;7.60;;;7.00;;
579;SDS011;276;48.392;9.950;2023-06-10T13:21:46;7.37;;;6.87;;
579;SDS011;276;48.392;9.950;2023-06-10T13:24:12;7.33;;;6.83;;
579;SDS011;276;48.392;9.950;2023-06-10T13:26:38;7.30;;;6.80;;
579;SDS011;276;48.392;9.950;2023-06-10T13:29:03;7.23;;;6.73;;
579;SDS011;276;48.392;9.950;2023-06-10T13:31:32;7.53;;;6.93;;
579;SDS011;276;48.392;9.950;2023-06-10T13:34:00;8.17;;;7.37;;
579;SDS011;276;48.392;9.950;2023-06-10T13:36:29;6.83;;;6.43;;
579;SDS011;276;48.392;9.950;2023-06-10T13:38:54;6.77;;;6.27;;
579;SDS011;276;48.392;9.950;2023-06-10T13:41:20;6.70;;;6.10;;
579;SDS011;276;48.392;9.950;2023-06-10T13:43:55;6.60;;;5.97;;
579;SDS011;276;48.392;9.950;2023-06-10T13:46:21;7.10;;;6.70;;
579;SDS011;276;48.392;9.950;2023-06-10T13:48:48;7.53;;;7.03;;
579;SDS011;276;48.392;9.950;2023-06-10T13:51:16;7.10;;;6.60;;
579;SDS011;276;48.392;9.950;2023-06-10T13:53:41;6.30;;;5.90;;
579;SDS011;276;48.392;9.950;2023-06-10T13:56:10;5.20;;;4.90;;
579;SDS011;276;48.392;9.950;2023-06-10T13:58:36;5.90;;;5.60;;
579;SDS011;276;48.392;9.950;2023-06-10T14:01:06;7.83;;;7.33;;
579;SDS011;276;48.392;9.950;2023-06-10T14:03:33;8.13;;;7.63;;
579;SDS011;276;48.392;9.950;2023-06-10T14:05:58;15.23;;;14.23;;
579;SDS011;276;48.392;9.950;2023-06-10T14:08:27;10.00;;;7.03;;
579;SDS011;276;48.392;9.950;2023-06-10T14:10:52;6.60;;;6.20;;
579;SDS011;276;48.392;9.950;2023-06-10T14:13:18;6.40;;;6.00;;
579;SDS011;276;48.392;9.950;2023-06-10T14:15:44;8.70;;;7.90;;
579;SDS011;276;48.392;9.950;2023-06-10T14:18:10;12.33;;;11.13;;
579;SDS011;276;48.392;9.950;2023-06-10T14:20:36;8.43;;;7.73;;
579;SDS011;276;48.392;9.950;2023-06-10T14:23:01;12.73;;;10.70;;
579;SDS011;276;48.392;9.950;2023-06-10T14:25:29;14.33;;;13.27;;
579;SDS011;276;48.392;9.950;2023-06-10T14:27:59;19.90;;;18.07;;
579;SDS011;276;48.392;9.950;2023-06-10T14:30:27;63.63;;;42.70;;
579;SDS011;276;48.392;9.950;2023-06-10T14:32:57;38.73;;;34.70;;
579;SDS011;276;48.392;9.950;2023-06-10T14:35:25;53.40;;;31.17;;
579;SDS011;276;48.392;9.950;2023-06-10T14:37:53;17.50;;;11.13;;
579;SDS011;276;48.392;9.950;2023-06-10T14:40:18;9.70;;;8.90;;
579;SDS011;276;48.392;9.950;2023-06-10T14:42:48;7.40;;;6.90;;
579;SDS011;276;48.392;9.950;2023-06-10T14:45:13;7.93;;;7.10;;
579;SDS011;276;48.392;9.950;2023-06-10T14:47:40;6.90;;;6.30;;
579;SDS011;276;48.392;9.950;2023-06-10T14:50:05;5.77;;;5.30;;
579;SDS011;276;48.392;9.950;2023-06-10T14:52:33;7.30;;;6.60;;
579;SDS011;276;48.392;9.950;2023-06-10T14:55:01;6.70;;;6.30;;
579;SDS011;276;48.392;9.950;2023-06-10T14:57:27;6.77;;;6.33;;
579;SDS011;276;48.392;9.950;2023-06-10T14:59:53;6.40;;;5.90;;
579;SDS011;276;48.392;9.950;2023-06-10T15:02:18;6.97;;;6.57;;
579;SDS011;276;48.392;9.950;2023-06-10T15:04:48;6.33;;;6.00;;
579;SDS011;276;48.392;9.950;2023-06-10T15:07:18;7.77;;;6.93;;
579;SDS011;276;48.392;9.950;2023-06-10T15:09:44;6.63;;;6.23;;
579;SDS011;276;48.392;9.950;2023-06-10T15:12:10;6.20;;;5.80;;
579;SDS011;276;48.392;9.950;2023-06-10T15:14:37;6.50;;;5.90;;
579;SDS011;276;48.392;9.950;2023-06-10T15:17:06;6.30;;;5.80;;
579;SDS011;276;48.392;9.950;2023-06-10T15:19:31;7.23;;;6.70;;
579;SDS011;276;48.392;9.950;2023-06-10T15:21:57;7.37;;;6.40;;
579;SDS011;276;48.392;9.950;2023-06-10T15:24:25;7.30;;;6.50;;
579;SDS011;276;48.392;9.950;2023-06-10T15:26:51;6.50;;;6.10;;
579;SDS011;276;48.392;9.950;2023-06-10T15:29:19;6.70;;;6.20;;
579;SDS011;276;48.392;9.950;2023-06-10T15:31:45;5.00;;;4.70;;
579;SDS011;276;48.392;9.950;2023-06-10T15:34:13;5.47;;;5.17;;
579;SDS011;276;48.392;9.950;2023-06-10T15:36:38;5.87;;;5.47;;
579;SDS011;276;48.392;9.950;2023-06-10T15:39:05;5.67;;;5.33;;
579;SDS011;276;48.392;9.950;2023-06-10T15:41:33;5.63;;;5.33;;
579;SDS011;276;48.392;9.950;2023-06-10T15:44:01;4.63;;;4.33;;
579;SDS011;276;48.392;9.950;2023-06-10T15:46:29;5.70;;;5.30;;
579;SDS011;276;48.392;9.950;2023-06-10T15:48:55;5.63;;;5.20;;
579;SDS011;276;48.392;9.950;2023-06-10T15:51:22;5.60;;;5.20;;
579;SDS011;276;48.392;9.950;2023-06-10T15:53:51;5.30;;;5.00;;
579;SDS011;276;48.392;9.950;2023-06-10T15:56:17;4.93;;;4.60;;
579;SDS011;276;48.392;9.950;2023-06-10T15:58:46;5.07;;;4.73;;
579;SDS011;276;48.392;9.950;2023-06-10T16:01:14;5.63;;;5.30;;
579;SDS011;276;48.392;9.950;2023-06-10T16:03:40;4.90;;;4.60;;
579;SDS011;276;48.392;9.950;2023-06-10T16:06:06;5.10;;;4.63;;
579;SDS011;276;48.392;9.950;2023-06-10T16:08:32;5.90;;;5.40;;
579;SDS011;276;48.392;9.950;2023-06-10T16:10:58;4.33;;;4.03;;
579;SDS011;276;48.392;9.950;2023-06-10T16:13:24;5.33;;;5.03;;
579;SDS011;276;48.392;9.950;2023-06-10T16:15:49;5.07;;;4.77;;
579;SDS011;276;48.392;9.950;2023-06-10T16:18:15;5.80;;;5.50;;
579;SDS011;276;48.392;9.950;2023-06-10T16:20:40;5.00;;;4.60;;
579;SDS011;276;48.392;9.950;2023-06-10T16:23:06;5.27;;;4.97;;